sensor_id;sensor_type;location;lat;lon;timestamp;temperature;humidity
37426;DHT22;23285;50.180;7.036;2022-08-26T00:01:06;23.70;81.70
37426;DHT22;23285;50.180;7.036;2022-08-26T00:03:52;23.30;82.00
37426;DHT22;23285;50.180;7.036;2022-08-26T00:09:24;23.20;84.70
37426;DHT22;23285;50.180;7.036;2022-08-26T00:12:09;23.00;83.40
37426;DHT22;23285;50.180;7.036;2022-08-26T00:14:54;23.30;82.20
37426;DHT22;23285;50.180;7.036;2022-08-26T00:17:39;23.20;81.90
37426;DHT22;23285;50.180;7.036;2022-08-26T00:20:28;23.00;82.20
37426;DHT22;23285;50.180;7.036;2022-08-26T00:23:13;22.90;84.10
37426;DHT22;23285;50.180;7.036;2022-08-26T00:26:01;22.70;83.20
37426;DHT22;23285;50.180;7.036;2022-08-26T00:31:33;22.50;85.90
37426;DHT22;23285;50.180;7.036;2022-08-26T00:34:18;22.50;83.50
37426;DHT22;23285;50.180;7.036;2022-08-26T00:37:03;22.80;83.80
37426;DHT22;23285;50.180;7.036;2022-08-26T00:39:49;22.90;84.60
37426;DHT22;23285;50.180;7.036;2022-08-26T00:42:34;23.10;82.90
37426;DHT22;23285;50.180;7.036;2022-08-26T00:45:19;23.10;82.40
37426;DHT22;23285;50.180;7.036;2022-08-26T00:48:05;22.90;83.10
37426;DHT22;23285;50.180;7.036;2022-08-26T00:53:47;22.60;86.00
37426;DHT22;23285;50.180;7.036;2022-08-26T00:56:58;22.60;85.40
37426;DHT22;23285;50.180;7.036;2022-08-26T00:59:45;22.80;85.20
37426;DHT22;23285;50.180;7.036;2022-08-26T01:02:31;22.50;85.30
37426;DHT22;23285;50.180;7.036;2022-08-26T01:08:03;22.30;87.10
37426;DHT22;23285;50.180;7.036;2022-08-26T01:10:48;22.30;84.90
37426;DHT22;23285;50.180;7.036;2022-08-26T01:19:22;22.20;87.90
37426;DHT22;23285;50.180;7.036;2022-08-26T01:22:17;22.30;87.80
37426;DHT22;23285;50.180;7.036;2022-08-26T01:25:04;22.30;87.50
37426;DHT22;23285;50.180;7.036;2022-08-26T01:27:50;22.30;87.30
37426;DHT22;23285;50.180;7.036;2022-08-26T01:30:37;22.40;87.00
37426;DHT22;23285;50.180;7.036;2022-08-26T01:33:35;22.50;87.00
37426;DHT22;23285;50.180;7.036;2022-08-26T01:41:55;22.90;88.10
37426;DHT22;23285;50.180;7.036;2022-08-26T01:44:45;23.30;86.20
37426;DHT22;23285;50.180;7.036;2022-08-26T01:47:32;23.20;86.00
37426;DHT22;23285;50.180;7.036;2022-08-26T01:50:22;23.40;85.70
37426;DHT22;23285;50.180;7.036;2022-08-26T01:53:10;23.00;86.20
37426;DHT22;23285;50.180;7.036;2022-08-26T01:55:58;23.00;86.10
37426;DHT22;23285;50.180;7.036;2022-08-26T01:58:47;23.00;86.20
37426;DHT22;23285;50.180;7.036;2022-08-26T02:01:33;22.80;86.60
37426;DHT22;23285;50.180;7.036;2022-08-26T02:04:56;22.50;86.30
37426;DHT22;23285;50.180;7.036;2022-08-26T02:07:42;22.70;87.90
37426;DHT22;23285;50.180;7.036;2022-08-26T02:18:46;22.30;88.80
37426;DHT22;23285;50.180;7.036;2022-08-26T02:21:32;22.40;87.90
37426;DHT22;23285;50.180;7.036;2022-08-26T02:24:28;22.30;87.50
37426;DHT22;23285;50.180;7.036;2022-08-26T02:27:14;22.00;89.30
37426;DHT22;23285;50.180;7.036;2022-08-26T02:30:18;22.00;90.10
37426;DHT22;23285;50.180;7.036;2022-08-26T02:33:04;22.20;89.60
37426;DHT22;23285;50.180;7.036;2022-08-26T02:35:49;22.30;86.30
37426;DHT22;23285;50.180;7.036;2022-08-26T02:38:35;22.20;86.90
37426;DHT22;23285;50.180;7.036;2022-08-26T02:41:20;22.20;86.50
37426;DHT22;23285;50.180;7.036;2022-08-26T02:44:05;22.30;87.10
37426;DHT22;23285;50.180;7.036;2022-08-26T02:46:51;22.20;88.00
37426;DHT22;23285;50.180;7.036;2022-08-26T02:49:36;22.40;87.40
37426;DHT22;23285;50.180;7.036;2022-08-26T02:52:22;22.40;86.40
37426;DHT22;23285;50.180;7.036;2022-08-26T02:55:07;22.40;86.00
37426;DHT22;23285;50.180;7.036;2022-08-26T03:00:38;22.60;88.00
37426;DHT22;23285;50.180;7.036;2022-08-26T03:08:54;22.10;89.10
37426;DHT22;23285;50.180;7.036;2022-08-26T03:11:39;22.00;88.30
37426;DHT22;23285;50.180;7.036;2022-08-26T03:17:09;22.10;89.40
37426;DHT22;23285;50.180;7.036;2022-08-26T03:19:54;22.00;88.30
37426;DHT22;23285;50.180;7.036;2022-08-26T03:22:39;21.90;88.30
37426;DHT22;23285;50.180;7.036;2022-08-26T03:25:24;22.10;88.40
37426;DHT22;23285;50.180;7.036;2022-08-26T03:28:10;22.30;90.00
37426;DHT22;23285;50.180;7.036;2022-08-26T03:33:41;22.40;90.20
37426;DHT22;23285;50.180;7.036;2022-08-26T03:36:26;22.30;88.70
37426;DHT22;23285;50.180;7.036;2022-08-26T03:39:12;22.30;88.90
37426;DHT22;23285;50.180;7.036;2022-08-26T03:41:57;22.30;90.50
37426;DHT22;23285;50.180;7.036;2022-08-26T03:44:42;22.10;90.90
37426;DHT22;23285;50.180;7.036;2022-08-26T03:47:27;22.00;90.80
37426;DHT22;23285;50.180;7.036;2022-08-26T03:50:14;22.10;90.40
37426;DHT22;23285;50.180;7.036;2022-08-26T03:53:00;22.00;91.70
37426;DHT22;23285;50.180;7.036;2022-08-26T03:58:32;22.00;92.20
37426;DHT22;23285;50.180;7.036;2022-08-26T04:01:17;22.30;91.80
37426;DHT22;23285;50.180;7.036;2022-08-26T04:04:03;22.40;90.50
37426;DHT22;23285;50.180;7.036;2022-08-26T04:06:48;22.40;91.40
37426;DHT22;23285;50.180;7.036;2022-08-26T04:09:34;22.10;92.10
37426;DHT22;23285;50.180;7.036;2022-08-26T04:15:07;22.40;92.80
37426;DHT22;23285;50.180;7.036;2022-08-26T04:17:52;22.60;92.40
37426;DHT22;23285;50.180;7.036;2022-08-26T04:20:37;22.60;92.20
37426;DHT22;23285;50.180;7.036;2022-08-26T04:23:23;22.70;91.90
37426;DHT22;23285;50.180;7.036;2022-08-26T04:26:10;22.30;93.50
37426;DHT22;23285;50.180;7.036;2022-08-26T04:28:55;22.20;93.10
37426;DHT22;23285;50.180;7.036;2022-08-26T04:31:40;22.00;93.70
37426;DHT22;23285;50.180;7.036;2022-08-26T04:34:27;22.00;94.60
37426;DHT22;23285;50.180;7.036;2022-08-26T04:37:12;21.90;94.90
37426;DHT22;23285;50.180;7.036;2022-08-26T04:39:57;21.90;94.70
37426;DHT22;23285;50.180;7.036;2022-08-26T04:42:42;22.20;95.10
37426;DHT22;23285;50.180;7.036;2022-08-26T04:48:13;21.40;98.10
37426;DHT22;23285;50.180;7.036;2022-08-26T04:50:59;21.30;99.40
37426;DHT22;23285;50.180;7.036;2022-08-26T04:53:44;21.60;98.80
37426;DHT22;23285;50.180;7.036;2022-08-26T04:56:33;21.80;99.40
37426;DHT22;23285;50.180;7.036;2022-08-26T04:59:19;21.70;99.90
37426;DHT22;23285;50.180;7.036;2022-08-26T05:02:04;21.60;99.80
37426;DHT22;23285;50.180;7.036;2022-08-26T05:04:49;21.70;99.50
37426;DHT22;23285;50.180;7.036;2022-08-26T05:13:05;21.80;99.90
37426;DHT22;23285;50.180;7.036;2022-08-26T05:15:51;21.50;99.90
37426;DHT22;23285;50.180;7.036;2022-08-26T05:24:12;21.60;99.90
37426;DHT22;23285;50.180;7.036;2022-08-26T05:26:57;21.20;99.90
37426;DHT22;23285;50.180;7.036;2022-08-26T05:29:42;21.20;99.90
37426;DHT22;23285;50.180;7.036;2022-08-26T05:32:27;21.40;99.90
37426;DHT22;23285;50.180;7.036;2022-08-26T05:35:12;21.70;99.90
37426;DHT22;23285;50.180;7.036;2022-08-26T05:37:58;21.80;99.90
37426;DHT22;23285;50.180;7.036;2022-08-26T05:40:46;22.00;99.90
37426;DHT22;23285;50.180;7.036;2022-08-26T05:51:50;22.00;99.90
37426;DHT22;23285;50.180;7.036;2022-08-26T05:54:38;21.80;99.90
37426;DHT22;23285;50.180;7.036;2022-08-26T05:57:23;21.70;99.90
37426;DHT22;23285;50.180;7.036;2022-08-26T06:00:09;22.00;99.90
37426;DHT22;23285;50.180;7.036;2022-08-26T06:02:57;22.30;99.90
37426;DHT22;23285;50.180;7.036;2022-08-26T06:05:42;22.20;99.90
37426;DHT22;23285;50.180;7.036;2022-08-26T06:08:27;22.20;99.90
37426;DHT22;23285;50.180;7.036;2022-08-26T06:14:01;22.40;99.90
37426;DHT22;23285;50.180;7.036;2022-08-26T06:16:46;22.30;99.90
37426;DHT22;23285;50.180;7.036;2022-08-26T06:22:16;22.30;99.90
37426;DHT22;23285;50.180;7.036;2022-08-26T06:25:21;22.30;99.90
37426;DHT22;23285;50.180;7.036;2022-08-26T06:28:22;22.60;99.90
37426;DHT22;23285;50.180;7.036;2022-08-26T06:31:08;22.80;99.90
37426;DHT22;23285;50.180;7.036;2022-08-26T06:33:54;22.90;99.90
37426;DHT22;23285;50.180;7.036;2022-08-26T06:36:41;23.00;99.90
37426;DHT22;23285;50.180;7.036;2022-08-26T06:42:11;22.90;99.90
37426;DHT22;23285;50.180;7.036;2022-08-26T06:44:59;23.00;99.90
37426;DHT22;23285;50.180;7.036;2022-08-26T06:50:30;23.00;99.90
37426;DHT22;23285;50.180;7.036;2022-08-26T06:53:15;23.10;99.90
37426;DHT22;23285;50.180;7.036;2022-08-26T06:56:03;23.10;99.90
37426;DHT22;23285;50.180;7.036;2022-08-26T06:58:50;23.10;99.90
37426;DHT22;23285;50.180;7.036;2022-08-26T07:01:39;23.30;99.90
37426;DHT22;23285;50.180;7.036;2022-08-26T07:07:14;23.30;99.90
37426;DHT22;23285;50.180;7.036;2022-08-26T07:09:59;23.50;99.90
37426;DHT22;23285;50.180;7.036;2022-08-26T07:12:44;23.30;99.90
37426;DHT22;23285;50.180;7.036;2022-08-26T07:15:29;23.50;99.90
37426;DHT22;23285;50.180;7.036;2022-08-26T07:18:15;23.40;99.90
37426;DHT22;23285;50.180;7.036;2022-08-26T07:21:02;23.50;99.90
37426;DHT22;23285;50.180;7.036;2022-08-26T07:23:48;23.30;99.90
37426;DHT22;23285;50.180;7.036;2022-08-26T07:26:33;23.30;99.90
37426;DHT22;23285;50.180;7.036;2022-08-26T07:29:19;23.20;99.90
37426;DHT22;23285;50.180;7.036;2022-08-26T07:32:04;23.20;99.90
37426;DHT22;23285;50.180;7.036;2022-08-26T07:37:35;23.10;99.90
37426;DHT22;23285;50.180;7.036;2022-08-26T07:43:07;23.30;99.90
37426;DHT22;23285;50.180;7.036;2022-08-26T07:45:53;23.30;99.90
37426;DHT22;23285;50.180;7.036;2022-08-26T07:48:38;23.10;99.90
37426;DHT22;23285;50.180;7.036;2022-08-26T07:51:24;23.20;99.90
37426;DHT22;23285;50.180;7.036;2022-08-26T07:54:10;23.40;99.90
37426;DHT22;23285;50.180;7.036;2022-08-26T07:56:55;23.40;99.90
37426;DHT22;23285;50.180;7.036;2022-08-26T07:59:41;23.30;99.90
37426;DHT22;23285;50.180;7.036;2022-08-26T08:10:48;23.50;99.90
37426;DHT22;23285;50.180;7.036;2022-08-26T08:16:18;23.60;99.90
37426;DHT22;23285;50.180;7.036;2022-08-26T08:19:03;23.60;99.90
37426;DHT22;23285;50.180;7.036;2022-08-26T08:21:48;23.70;99.90
37426;DHT22;23285;50.180;7.036;2022-08-26T08:24:34;24.00;99.90
37426;DHT22;23285;50.180;7.036;2022-08-26T08:27:19;23.90;99.90
37426;DHT22;23285;50.180;7.036;2022-08-26T08:30:05;24.10;99.90
37426;DHT22;23285;50.180;7.036;2022-08-26T08:32:51;24.20;99.90
37426;DHT22;23285;50.180;7.036;2022-08-26T08:35:38;24.30;99.90
37426;DHT22;23285;50.180;7.036;2022-08-26T08:38:24;24.00;99.90
37426;DHT22;23285;50.180;7.036;2022-08-26T08:44:21;24.40;99.90
37426;DHT22;23285;50.180;7.036;2022-08-26T08:47:35;24.60;99.90
37426;DHT22;23285;50.180;7.036;2022-08-26T08:50:47;24.40;99.90
37426;DHT22;23285;50.180;7.036;2022-08-26T08:53:37;24.60;99.90
37426;DHT22;23285;50.180;7.036;2022-08-26T08:59:21;24.70;99.90
37426;DHT22;23285;50.180;7.036;2022-08-26T09:08:10;25.30;99.90
37426;DHT22;23285;50.180;7.036;2022-08-26T09:13:50;25.30;99.90
37426;DHT22;23285;50.180;7.036;2022-08-26T09:19:52;25.30;99.90
37426;DHT22;23285;50.180;7.036;2022-08-26T09:22:38;25.50;99.80
37426;DHT22;23285;50.180;7.036;2022-08-26T09:28:15;25.90;99.40
37426;DHT22;23285;50.180;7.036;2022-08-26T09:31:10;25.80;99.30
37426;DHT22;23285;50.180;7.036;2022-08-26T09:36:58;26.40;98.90
37426;DHT22;23285;50.180;7.036;2022-08-26T09:39:44;26.70;97.90
37426;DHT22;23285;50.180;7.036;2022-08-26T09:42:29;26.70;97.20
37426;DHT22;23285;50.180;7.036;2022-08-26T09:45:14;26.60;96.80
37426;DHT22;23285;50.180;7.036;2022-08-26T09:48:09;26.80;97.90
37426;DHT22;23285;50.180;7.036;2022-08-26T09:50:58;27.00;96.50
37426;DHT22;23285;50.180;7.036;2022-08-26T09:53:53;27.30;96.40
37426;DHT22;23285;50.180;7.036;2022-08-26T09:56:38;27.50;95.60
37426;DHT22;23285;50.180;7.036;2022-08-26T10:05:25;27.70;95.90
37426;DHT22;23285;50.180;7.036;2022-08-26T10:08:20;27.70;95.10
37426;DHT22;23285;50.180;7.036;2022-08-26T10:14:03;27.90;94.40
37426;DHT22;23285;50.180;7.036;2022-08-26T10:16:57;28.10;93.90
37426;DHT22;23285;50.180;7.036;2022-08-26T10:19:49;28.10;94.00
37426;DHT22;23285;50.180;7.036;2022-08-26T10:22:43;28.20;94.00
37426;DHT22;23285;50.180;7.036;2022-08-26T10:25:35;28.30;93.10
37426;DHT22;23285;50.180;7.036;2022-08-26T10:34:33;28.40;93.30
37426;DHT22;23285;50.180;7.036;2022-08-26T10:43:01;27.80;94.40
37426;DHT22;23285;50.180;7.036;2022-08-26T10:45:51;27.80;94.00
37426;DHT22;23285;50.180;7.036;2022-08-26T10:49:00;27.80;93.70
37426;DHT22;23285;50.180;7.036;2022-08-26T10:55:10;27.90;93.90
37426;DHT22;23285;50.180;7.036;2022-08-26T11:01:16;27.80;92.90
37426;DHT22;23285;50.180;7.036;2022-08-26T11:07:32;28.20;93.30
37426;DHT22;23285;50.180;7.036;2022-08-26T11:13:03;28.10;92.50
37426;DHT22;23285;50.180;7.036;2022-08-26T11:18:40;27.90;92.70
37426;DHT22;23285;50.180;7.036;2022-08-26T11:33:07;27.90;92.90
37426;DHT22;23285;50.180;7.036;2022-08-26T11:35:52;27.60;94.00
37426;DHT22;23285;50.180;7.036;2022-08-26T11:38:41;27.50;93.50
37426;DHT22;23285;50.180;7.036;2022-08-26T11:44:21;26.90;95.00
37426;DHT22;23285;50.180;7.036;2022-08-26T11:47:07;27.30;94.70
37426;DHT22;23285;50.180;7.036;2022-08-26T11:50:13;27.50;94.30
37426;DHT22;23285;50.180;7.036;2022-08-26T11:53:01;27.40;93.90
37426;DHT22;23285;50.180;7.036;2022-08-26T11:55:51;27.20;94.40
37426;DHT22;23285;50.180;7.036;2022-08-26T11:58:46;27.40;93.70
37426;DHT22;23285;50.180;7.036;2022-08-26T12:01:34;27.30;94.10
37426;DHT22;23285;50.180;7.036;2022-08-26T12:04:33;27.10;94.10
37426;DHT22;23285;50.180;7.036;2022-08-26T12:07:26;27.20;94.20
37426;DHT22;23285;50.180;7.036;2022-08-26T12:10:27;27.20;94.80
37426;DHT22;23285;50.180;7.036;2022-08-26T12:13:23;27.20;94.90
37426;DHT22;23285;50.180;7.036;2022-08-26T12:16:08;27.00;94.50
37426;DHT22;23285;50.180;7.036;2022-08-26T12:18:53;27.00;94.00
37426;DHT22;23285;50.180;7.036;2022-08-26T12:21:39;26.80;94.40
37426;DHT22;23285;50.180;7.036;2022-08-26T12:24:24;26.70;95.30
37426;DHT22;23285;50.180;7.036;2022-08-26T12:27:27;26.90;94.40
37426;DHT22;23285;50.180;7.036;2022-08-26T12:30:16;27.10;94.80
37426;DHT22;23285;50.180;7.036;2022-08-26T12:33:10;26.90;95.20
37426;DHT22;23285;50.180;7.036;2022-08-26T12:35:57;27.00;94.80
37426;DHT22;23285;50.180;7.036;2022-08-26T12:38:42;27.10;94.20
37426;DHT22;23285;50.180;7.036;2022-08-26T12:41:49;27.30;93.40
37426;DHT22;23285;50.180;7.036;2022-08-26T12:44:45;27.10;94.60
37426;DHT22;23285;50.180;7.036;2022-08-26T12:50:28;26.20;96.80
37426;DHT22;23285;50.180;7.036;2022-08-26T12:56:36;26.40;95.70
37426;DHT22;23285;50.180;7.036;2022-08-26T12:59:25;26.70;96.40
37426;DHT22;23285;50.180;7.036;2022-08-26T13:02:34;26.80;94.40
37426;DHT22;23285;50.180;7.036;2022-08-26T13:05:25;26.70;95.80
37426;DHT22;23285;50.180;7.036;2022-08-26T13:08:23;26.50;95.60
37426;DHT22;23285;50.180;7.036;2022-08-26T13:11:13;26.70;95.40
37426;DHT22;23285;50.180;7.036;2022-08-26T13:16:48;26.00;97.30
37426;DHT22;23285;50.180;7.036;2022-08-26T13:19:33;26.00;95.60
37426;DHT22;23285;50.180;7.036;2022-08-26T13:22:22;26.10;95.80
37426;DHT22;23285;50.180;7.036;2022-08-26T13:25:10;26.10;95.70
37426;DHT22;23285;50.180;7.036;2022-08-26T13:27:55;25.00;96.90
37426;DHT22;23285;50.180;7.036;2022-08-26T13:30:41;24.70;97.40
37426;DHT22;23285;50.180;7.036;2022-08-26T13:33:28;24.50;98.10
37426;DHT22;23285;50.180;7.036;2022-08-26T13:36:13;24.30;98.20
37426;DHT22;23285;50.180;7.036;2022-08-26T13:41:44;24.40;99.30
37426;DHT22;23285;50.180;7.036;2022-08-26T13:44:30;24.10;99.80
37426;DHT22;23285;50.180;7.036;2022-08-26T13:47:16;24.40;98.70
37426;DHT22;23285;50.180;7.036;2022-08-26T13:50:01;24.50;99.00
37426;DHT22;23285;50.180;7.036;2022-08-26T13:52:46;25.00;99.00
37426;DHT22;23285;50.180;7.036;2022-08-26T13:55:31;26.00;97.70
37426;DHT22;23285;50.180;7.036;2022-08-26T13:58:16;26.50;96.40
37426;DHT22;23285;50.180;7.036;2022-08-26T14:06:32;26.40;97.70
37426;DHT22;23285;50.180;7.036;2022-08-26T14:12:03;25.40;98.10
37426;DHT22;23285;50.180;7.036;2022-08-26T14:20:26;25.90;98.30
37426;DHT22;23285;50.180;7.036;2022-08-26T14:23:11;26.40;97.20
37426;DHT22;23285;50.180;7.036;2022-08-26T14:25:57;26.80;96.40
37426;DHT22;23285;50.180;7.036;2022-08-26T14:28:44;27.10;95.90
37426;DHT22;23285;50.180;7.036;2022-08-26T14:31:30;27.20;94.50
37426;DHT22;23285;50.180;7.036;2022-08-26T14:34:16;26.90;95.40
37426;DHT22;23285;50.180;7.036;2022-08-26T14:37:01;27.40;94.40
37426;DHT22;23285;50.180;7.036;2022-08-26T14:39:46;27.60;94.10
37426;DHT22;23285;50.180;7.036;2022-08-26T14:42:32;27.40;94.60
37426;DHT22;23285;50.180;7.036;2022-08-26T14:48:05;27.50;94.50
37426;DHT22;23285;50.180;7.036;2022-08-26T14:50:50;26.70;95.80
37426;DHT22;23285;50.180;7.036;2022-08-26T15:02:33;26.70;95.40
37426;DHT22;23285;50.180;7.036;2022-08-26T15:05:18;26.10;95.60
37426;DHT22;23285;50.180;7.036;2022-08-26T15:08:03;25.90;96.70
37426;DHT22;23285;50.180;7.036;2022-08-26T15:10:53;26.40;95.80
37426;DHT22;23285;50.180;7.036;2022-08-26T15:13:38;26.60;94.90
37426;DHT22;23285;50.180;7.036;2022-08-26T15:16:23;26.80;94.70
37426;DHT22;23285;50.180;7.036;2022-08-26T15:19:09;26.60;95.10
37426;DHT22;23285;50.180;7.036;2022-08-26T15:24:39;26.30;96.30
37426;DHT22;23285;50.180;7.036;2022-08-26T15:27:24;25.80;96.10
37426;DHT22;23285;50.180;7.036;2022-08-26T15:30:11;25.30;96.50
37426;DHT22;23285;50.180;7.036;2022-08-26T15:32:56;24.80;97.10
37426;DHT22;23285;50.180;7.036;2022-08-26T15:35:41;24.80;97.30
37426;DHT22;23285;50.180;7.036;2022-08-26T15:38:32;25.00;97.40
37426;DHT22;23285;50.180;7.036;2022-08-26T15:41:17;25.00;97.40
37426;DHT22;23285;50.180;7.036;2022-08-26T15:44:04;24.70;97.40
37426;DHT22;23285;50.180;7.036;2022-08-26T15:46:49;24.50;98.00
37426;DHT22;23285;50.180;7.036;2022-08-26T15:49:35;24.60;98.00
37426;DHT22;23285;50.180;7.036;2022-08-26T15:52:20;24.60;97.50
37426;DHT22;23285;50.180;7.036;2022-08-26T15:55:05;24.10;98.40
37426;DHT22;23285;50.180;7.036;2022-08-26T15:57:50;24.00;99.10
37426;DHT22;23285;50.180;7.036;2022-08-26T16:03:21;23.80;99.80
37426;DHT22;23285;50.180;7.036;2022-08-26T16:06:07;23.80;99.90
37426;DHT22;23285;50.180;7.036;2022-08-26T16:08:53;24.30;98.90
37426;DHT22;23285;50.180;7.036;2022-08-26T16:11:39;24.20;99.80
37426;DHT22;23285;50.180;7.036;2022-08-26T16:14:24;23.80;99.30
37426;DHT22;23285;50.180;7.036;2022-08-26T16:17:09;23.50;99.90
37426;DHT22;23285;50.180;7.036;2022-08-26T16:19:56;23.50;99.90
37426;DHT22;23285;50.180;7.036;2022-08-26T16:25:27;23.40;99.90
37426;DHT22;23285;50.180;7.036;2022-08-26T16:28:13;23.40;99.90
37426;DHT22;23285;50.180;7.036;2022-08-26T16:30:58;23.40;99.90
37426;DHT22;23285;50.180;7.036;2022-08-26T16:33:43;23.50;99.90
37426;DHT22;23285;50.180;7.036;2022-08-26T16:44:44;23.00;99.90
37426;DHT22;23285;50.180;7.036;2022-08-26T16:47:29;23.10;99.90
37426;DHT22;23285;50.180;7.036;2022-08-26T16:50:16;23.10;99.90
37426;DHT22;23285;50.180;7.036;2022-08-26T16:55:47;23.60;99.90
37426;DHT22;23285;50.180;7.036;2022-08-26T16:58:33;23.50;99.90
37426;DHT22;23285;50.180;7.036;2022-08-26T17:04:04;23.40;99.90
37426;DHT22;23285;50.180;7.036;2022-08-26T17:06:49;23.50;99.90
37426;DHT22;23285;50.180;7.036;2022-08-26T17:09:35;23.20;99.90
37426;DHT22;23285;50.180;7.036;2022-08-26T17:12:21;22.90;99.90
37426;DHT22;23285;50.180;7.036;2022-08-26T17:15:07;22.90;99.90
37426;DHT22;23285;50.180;7.036;2022-08-26T17:17:53;22.40;99.90
37426;DHT22;23285;50.180;7.036;2022-08-26T17:20:38;22.60;99.90
37426;DHT22;23285;50.180;7.036;2022-08-26T17:23:23;22.40;99.90
37426;DHT22;23285;50.180;7.036;2022-08-26T17:26:09;22.50;99.90
37426;DHT22;23285;50.180;7.036;2022-08-26T17:28:55;22.40;99.90
37426;DHT22;23285;50.180;7.036;2022-08-26T17:31:40;22.20;99.90
37426;DHT22;23285;50.180;7.036;2022-08-26T17:34:25;22.10;99.90
37426;DHT22;23285;50.180;7.036;2022-08-26T17:37:10;22.20;99.90
37426;DHT22;23285;50.180;7.036;2022-08-26T17:42:42;22.40;99.90
37426;DHT22;23285;50.180;7.036;2022-08-26T17:45:27;22.50;99.90
37426;DHT22;23285;50.180;7.036;2022-08-26T17:48:12;22.40;99.90
37426;DHT22;23285;50.180;7.036;2022-08-26T17:50:57;22.20;99.90
37426;DHT22;23285;50.180;7.036;2022-08-26T17:53:42;22.40;99.90
37426;DHT22;23285;50.180;7.036;2022-08-26T17:56:28;22.40;99.90
37426;DHT22;23285;50.180;7.036;2022-08-26T18:01:59;21.90;99.90
37426;DHT22;23285;50.180;7.036;2022-08-26T18:04:44;22.20;99.90
37426;DHT22;23285;50.180;7.036;2022-08-26T18:07:29;22.10;99.90
37426;DHT22;23285;50.180;7.036;2022-08-26T18:10:16;22.10;99.90
37426;DHT22;23285;50.180;7.036;2022-08-26T18:13:01;22.00;99.90
37426;DHT22;23285;50.180;7.036;2022-08-26T18:18:32;21.30;99.90
37426;DHT22;23285;50.180;7.036;2022-08-26T18:29:36;21.20;99.90
37426;DHT22;23285;50.180;7.036;2022-08-26T18:35:07;21.30;99.90
37426;DHT22;23285;50.180;7.036;2022-08-26T18:37:54;21.50;99.90
37426;DHT22;23285;50.180;7.036;2022-08-26T18:40:40;21.60;99.90
37426;DHT22;23285;50.180;7.036;2022-08-26T18:48:56;21.50;99.90
37426;DHT22;23285;50.180;7.036;2022-08-26T18:51:42;21.40;99.90
37426;DHT22;23285;50.180;7.036;2022-08-26T18:54:28;21.50;99.90
37426;DHT22;23285;50.180;7.036;2022-08-26T18:57:13;21.10;99.90
37426;DHT22;23285;50.180;7.036;2022-08-26T19:00:00;21.30;99.90
37426;DHT22;23285;50.180;7.036;2022-08-26T19:02:45;21.30;99.90
37426;DHT22;23285;50.180;7.036;2022-08-26T19:05:30;21.00;99.90
37426;DHT22;23285;50.180;7.036;2022-08-26T19:08:15;20.80;99.90
37426;DHT22;23285;50.180;7.036;2022-08-26T19:11:00;21.10;99.90
37426;DHT22;23285;50.180;7.036;2022-08-26T19:13:45;20.80;99.90
37426;DHT22;23285;50.180;7.036;2022-08-26T19:16:30;20.60;99.90
37426;DHT22;23285;50.180;7.036;2022-08-26T19:19:15;20.70;99.90
37426;DHT22;23285;50.180;7.036;2022-08-26T19:22:01;21.00;99.90
37426;DHT22;23285;50.180;7.036;2022-08-26T19:24:46;20.90;99.90
37426;DHT22;23285;50.180;7.036;2022-08-26T19:27:31;20.90;99.90
37426;DHT22;23285;50.180;7.036;2022-08-26T19:33:01;21.10;99.90
37426;DHT22;23285;50.180;7.036;2022-08-26T19:35:49;21.30;99.90
37426;DHT22;23285;50.180;7.036;2022-08-26T19:38:34;21.20;99.90
37426;DHT22;23285;50.180;7.036;2022-08-26T19:41:22;20.90;99.90
37426;DHT22;23285;50.180;7.036;2022-08-26T19:44:11;20.80;99.90
37426;DHT22;23285;50.180;7.036;2022-08-26T19:46:56;20.80;99.90
37426;DHT22;23285;50.180;7.036;2022-08-26T19:52:27;20.60;99.90
37426;DHT22;23285;50.180;7.036;2022-08-26T19:55:15;20.50;99.90
37426;DHT22;23285;50.180;7.036;2022-08-26T19:58:00;20.80;99.90
37426;DHT22;23285;50.180;7.036;2022-08-26T20:03:32;20.70;99.90
37426;DHT22;23285;50.180;7.036;2022-08-26T20:06:17;20.60;99.90
37426;DHT22;23285;50.180;7.036;2022-08-26T20:09:03;20.50;99.90
37426;DHT22;23285;50.180;7.036;2022-08-26T20:14:34;20.80;99.90
37426;DHT22;23285;50.180;7.036;2022-08-26T20:17:19;20.90;99.90
37426;DHT22;23285;50.180;7.036;2022-08-26T20:20:06;20.80;99.90
37426;DHT22;23285;50.180;7.036;2022-08-26T20:23:10;20.70;99.90
37426;DHT22;23285;50.180;7.036;2022-08-26T20:28:41;20.70;99.90
37426;DHT22;23285;50.180;7.036;2022-08-26T20:34:14;20.50;99.90
37426;DHT22;23285;50.180;7.036;2022-08-26T20:39:46;20.40;99.90
37426;DHT22;23285;50.180;7.036;2022-08-26T20:45:17;20.90;99.90
37426;DHT22;23285;50.180;7.036;2022-08-26T20:48:02;20.60;99.90
37426;DHT22;23285;50.180;7.036;2022-08-26T20:50:47;20.60;99.90
37426;DHT22;23285;50.180;7.036;2022-08-26T20:53:33;20.90;99.90
37426;DHT22;23285;50.180;7.036;2022-08-26T20:56:19;21.00;99.90
37426;DHT22;23285;50.180;7.036;2022-08-26T20:59:07;20.70;99.90
37426;DHT22;23285;50.180;7.036;2022-08-26T21:01:53;20.70;99.90
37426;DHT22;23285;50.180;7.036;2022-08-26T21:04:38;20.70;99.90
37426;DHT22;23285;50.180;7.036;2022-08-26T21:07:24;20.60;99.90
37426;DHT22;23285;50.180;7.036;2022-08-26T21:12:55;20.80;99.90
37426;DHT22;23285;50.180;7.036;2022-08-26T21:15:41;21.10;99.90
37426;DHT22;23285;50.180;7.036;2022-08-26T21:18:26;21.10;99.90
37426;DHT22;23285;50.180;7.036;2022-08-26T21:21:12;21.10;99.90
37426;DHT22;23285;50.180;7.036;2022-08-26T21:23:58;20.70;99.90
37426;DHT22;23285;50.180;7.036;2022-08-26T21:26:43;20.60;99.90
37426;DHT22;23285;50.180;7.036;2022-08-26T21:29:29;20.60;99.90
37426;DHT22;23285;50.180;7.036;2022-08-26T21:32:14;20.60;99.90
37426;DHT22;23285;50.180;7.036;2022-08-26T21:34:59;20.50;99.90
37426;DHT22;23285;50.180;7.036;2022-08-26T21:37:44;20.30;99.90
37426;DHT22;23285;50.180;7.036;2022-08-26T21:40:30;20.20;99.90
37426;DHT22;23285;50.180;7.036;2022-08-26T21:46:03;20.30;99.90
37426;DHT22;23285;50.180;7.036;2022-08-26T21:49:00;20.50;99.90
37426;DHT22;23285;50.180;7.036;2022-08-26T21:51:46;20.50;99.90
37426;DHT22;23285;50.180;7.036;2022-08-26T21:57:17;20.10;99.90
37426;DHT22;23285;50.180;7.036;2022-08-26T22:00:05;20.20;99.90
37426;DHT22;23285;50.180;7.036;2022-08-26T22:02:51;20.40;99.90
37426;DHT22;23285;50.180;7.036;2022-08-26T22:08:29;20.20;99.90
37426;DHT22;23285;50.180;7.036;2022-08-26T22:11:14;20.20;99.90
37426;DHT22;23285;50.180;7.036;2022-08-26T22:13:59;20.00;99.90
37426;DHT22;23285;50.180;7.036;2022-08-26T22:16:44;19.80;99.90
37426;DHT22;23285;50.180;7.036;2022-08-26T22:19:29;20.10;99.90
37426;DHT22;23285;50.180;7.036;2022-08-26T22:22:18;20.20;99.90
37426;DHT22;23285;50.180;7.036;2022-08-26T22:38:50;20.30;99.90
37426;DHT22;23285;50.180;7.036;2022-08-26T22:47:06;20.10;99.90
37426;DHT22;23285;50.180;7.036;2022-08-26T22:49:51;20.20;99.90